sensor_id;sensor_type;location;lat;lon;timestamp;P1;durP1;ratioP1;P2;durP2;ratioP2
65936;SDS011;52707;52.086;5.418;2023-01-01T00:01:18;65.07;;;28.03;;
65936;SDS011;52707;52.086;5.418;2023-01-01T00:03:47;51.30;;;21.42;;
65936;SDS011;52707;52.086;5.418;2023-01-01T00:06:13;46.50;;;14.07;;
65936;SDS011;52707;52.086;5.418;2023-01-01T00:08:40;35.35;;;13.77;;
65936;SDS011;52707;52.086;5.418;2023-01-01T00:11:07;24.45;;;11.30;;
65936;SDS011;52707;52.086;5.418;2023-01-01T00:13:35;28.38;;;12.98;;
65936;SDS011;52707;52.086;5.418;2023-01-01T00:16:02;30.27;;;14.23;;
65936;SDS011;52707;52.086;5.418;2023-01-01T00:18:29;32.17;;;14.05;;
65936;SDS011;52707;52.086;5.418;2023-01-01T00:21:02;35.45;;;17.30;;
65936;SDS011;52707;52.086;5.418;2023-01-01T00:23:29;45.90;;;20.88;;
65936;SDS011;52707;52.086;5.418;2023-01-01T00:25:55;40.92;;;16.75;;
65936;SDS011;52707;52.086;5.418;2023-01-01T00:28:21;32.75;;;16.17;;
65936;SDS011;52707;52.086;5.418;2023-01-01T00:30:48;38.92;;;17.48;;
65936;SDS011;52707;52.086;5.418;2023-01-01T00:33:14;39.72;;;21.73;;
65936;SDS011;52707;52.086;5.418;2023-01-01T00:35:40;39.35;;;16.55;;
65936;SDS011;52707;52.086;5.418;2023-01-01T00:38:06;27.88;;;16.02;;
65936;SDS011;52707;52.086;5.418;2023-01-01T00:40:33;37.55;;;16.63;;
65936;SDS011;52707;52.086;5.418;2023-01-01T00:42:59;32.97;;;11.52;;
65936;SDS011;52707;52.086;5.418;2023-01-01T00:45:26;25.23;;;11.43;;
65936;SDS011;52707;52.086;5.418;2023-01-01T00:47:52;21.50;;;9.57;;
65936;SDS011;52707;52.086;5.418;2023-01-01T00:50:19;27.83;;;10.18;;
65936;SDS011;52707;52.086;5.418;2023-01-01T00:52:46;26.05;;;9.68;;
65936;SDS011;52707;52.086;5.418;2023-01-01T00:55:14;28.60;;;9.13;;
65936;SDS011;52707;52.086;5.418;2023-01-01T00:57:40;27.23;;;8.82;;
65936;SDS011;52707;52.086;5.418;2023-01-01T01:00:07;24.05;;;8.43;;
65936;SDS011;52707;52.086;5.418;2023-01-01T01:02:33;19.98;;;7.32;;
65936;SDS011;52707;52.086;5.418;2023-01-01T01:05:00;25.13;;;8.15;;
65936;SDS011;52707;52.086;5.418;2023-01-01T01:07:31;30.08;;;7.28;;
65936;SDS011;52707;52.086;5.418;2023-01-01T01:09:58;25.90;;;7.17;;
65936;SDS011;52707;52.086;5.418;2023-01-01T01:12:24;19.92;;;6.63;;
65936;SDS011;52707;52.086;5.418;2023-01-01T01:14:50;24.58;;;5.95;;
65936;SDS011;52707;52.086;5.418;2023-01-01T01:17:17;23.33;;;5.53;;
65936;SDS011;52707;52.086;5.418;2023-01-01T01:19:43;21.23;;;6.32;;
65936;SDS011;52707;52.086;5.418;2023-01-01T01:22:09;20.05;;;6.60;;
65936;SDS011;52707;52.086;5.418;2023-01-01T21:56:39;17.15;;;6.57;;
65936;SDS011;52707;52.086;5.418;2023-01-01T21:59:09;9.18;;;5.43;;
65936;SDS011;52707;52.086;5.418;2023-01-01T22:04:40;12.95;;;6.32;;
65936;SDS011;52707;52.086;5.418;2023-01-01T22:07:26;14.07;;;6.78;;
65936;SDS011;52707;52.086;5.418;2023-01-01T22:12:39;11.30;;;5.30;;
65936;SDS011;52707;52.086;5.418;2023-01-01T22:17:47;9.32;;;5.60;;
65936;SDS011;52707;52.086;5.418;2023-01-01T22:20:23;10.85;;;5.57;;
65936;SDS011;52707;52.086;5.418;2023-01-01T22:22:49;12.05;;;5.82;;
65936;SDS011;52707;52.086;5.418;2023-01-01T22:25:23;16.08;;;6.70;;
65936;SDS011;52707;52.086;5.418;2023-01-01T22:27:51;14.32;;;6.38;;
65936;SDS011;52707;52.086;5.418;2023-01-01T22:32:53;14.00;;;5.85;;
65936;SDS011;52707;52.086;5.418;2023-01-01T22:35:27;10.77;;;5.30;;
65936;SDS011;52707;52.086;5.418;2023-01-01T22:37:54;12.07;;;5.20;;
65936;SDS011;52707;52.086;5.418;2023-01-01T22:40:23;16.08;;;6.03;;
65936;SDS011;52707;52.086;5.418;2023-01-01T22:42:52;17.40;;;5.85;;
65936;SDS011;52707;52.086;5.418;2023-01-01T22:45:19;10.88;;;5.05;;
65936;SDS011;52707;52.086;5.418;2023-01-01T22:47:45;15.55;;;6.28;;
65936;SDS011;52707;52.086;5.418;2023-01-01T22:50:17;12.90;;;5.97;;
65936;SDS011;52707;52.086;5.418;2023-01-01T22:52:44;13.75;;;5.80;;
65936;SDS011;52707;52.086;5.418;2023-01-01T22:55:11;12.60;;;5.38;;
65936;SDS011;52707;52.086;5.418;2023-01-01T22:57:37;24.25;;;5.93;;
65936;SDS011;52707;52.086;5.418;2023-01-01T23:00:03;17.52;;;5.82;;
65936;SDS011;52707;52.086;5.418;2023-01-01T23:02:30;13.65;;;6.07;;
65936;SDS011;52707;52.086;5.418;2023-01-01T23:04:56;15.18;;;5.68;;
65936;SDS011;52707;52.086;5.418;2023-01-01T23:07:23;13.65;;;5.97;;
65936;SDS011;52707;52.086;5.418;2023-01-01T23:09:49;15.43;;;7.05;;
65936;SDS011;52707;52.086;5.418;2023-01-01T23:12:15;16.55;;;6.03;;
65936;SDS011;52707;52.086;5.418;2023-01-01T23:14:42;15.80;;;5.63;;
65936;SDS011;52707;52.086;5.418;2023-01-01T23:17:27;16.17;;;5.72;;
65936;SDS011;52707;52.086;5.418;2023-01-01T23:19:53;12.57;;;5.25;;
65936;SDS011;52707;52.086;5.418;2023-01-01T23:22:23;13.27;;;6.10;;
65936;SDS011;52707;52.086;5.418;2023-01-01T23:24:52;19.58;;;5.93;;
65936;SDS011;52707;52.086;5.418;2023-01-01T23:27:18;23.70;;;6.28;;
65936;SDS011;52707;52.086;5.418;2023-01-01T23:29:45;15.40;;;5.57;;
65936;SDS011;52707;52.086;5.418;2023-01-01T23:32:12;18.40;;;6.28;;
65936;SDS011;52707;52.086;5.418;2023-01-01T23:34:39;21.77;;;5.65;;
